Las Vegas, Nevada
Current Conditions -  °F | °C
As of 4:56 AM on Thursday 30 Oct 2014 (Local Time) from KLAS Reporting Station
Clear Clear  
Wind Chill: 58°   Ceiling: Unl
Heat Index: 58°   Visibility: 10mi
Dew Point: 23°   Wind: 8mph
Humidity: 26%   Direction: 210°SSW
Pressure: 30.04"   Gusts: NA
Location:  36.17°N, 115.13°W
Report Text: KLAS 301156Z 21007KT 10SM CLR 14/M05 A3004 RMK AO2 SLP155 T01441050 10183 20144 57003
Loading
Personal Weather Stations






























Interactive Weather Map
Tropical Storm Tracking
New forecast layout! Learn more

10-Day Weather Forecast

Advertisements
Track Severe Weather on mobile